createdAt,value
2022-10-11T00:01:04.850Z,24.22
2022-10-11T00:03:33.240Z,24.19
2022-10-11T00:06:04.194Z,24.15
2022-10-11T00:08:33.851Z,24.15
2022-10-11T00:11:05.056Z,24.11
2022-10-11T00:13:34.173Z,24.07
2022-10-11T00:16:02.826Z,24.02
2022-10-11T00:18:34.280Z,23.96
2022-10-11T00:21:07.908Z,23.92
2022-10-11T00:23:36.805Z,23.89
2022-10-11T00:26:08.277Z,23.85
2022-10-11T00:28:38.682Z,23.78
2022-10-11T00:31:16.764Z,23.74
2022-10-11T00:33:45.189Z,23.71
2022-10-11T00:36:18.493Z,23.68
2022-10-11T00:38:47.435Z,23.66
2022-10-11T00:41:17.163Z,23.63
2022-10-11T00:43:46.151Z,23.62
2022-10-11T00:46:20.511Z,23.59
2022-10-11T00:48:54.961Z,23.53
2022-10-11T00:51:35.727Z,23.49
2022-10-11T00:54:05.950Z,23.45
2022-10-11T00:56:41.203Z,23.36
2022-10-11T00:59:20.236Z,23.28
2022-10-11T01:01:48.757Z,23.20
2022-10-11T01:04:17.040Z,23.14
2022-10-11T01:06:46.484Z,23.09
2022-10-11T01:09:15.745Z,22.99
2022-10-11T01:11:45.949Z,22.90
2022-10-11T01:14:40.251Z,22.82
2022-10-11T01:17:17.332Z,22.70
2022-10-11T01:20:17.061Z,22.54
2022-10-11T01:23:09.691Z,22.42
2022-10-11T01:26:00.961Z,22.35
2022-10-11T01:29:04.560Z,22.28
2022-10-11T01:31:44.725Z,22.19
2022-10-11T01:34:22.640Z,22.13
2022-10-11T01:37:14.476Z,22.06
2022-10-11T01:39:49.891Z,21.95
2022-10-11T01:42:19.953Z,21.85
2022-10-11T01:44:51.096Z,21.78
2022-10-11T01:47:24.587Z,21.69
2022-10-11T01:50:01.840Z,21.61
2022-10-11T01:52:35.110Z,21.51
2022-10-11T01:55:21.686Z,21.43
2022-10-11T01:58:12.401Z,21.33
2022-10-11T02:00:59.085Z,21.23
2022-10-11T02:03:52.216Z,21.10
2022-10-11T02:07:01.835Z,21.01
2022-10-11T02:09:48.241Z,20.94
2022-10-11T02:12:42.150Z,20.79
2022-10-11T02:15:14.009Z,20.64
2022-10-11T02:17:50.454Z,20.49
2022-10-11T02:20:23.102Z,20.37
2022-10-11T02:22:57.325Z,20.24
2022-10-11T02:25:30.956Z,20.13
2022-10-11T02:28:03.055Z,20.02
2022-10-11T02:30:33.261Z,20.03
2022-10-11T02:33:06.511Z,20.04
2022-10-11T02:35:42.965Z,20.02
2022-10-11T02:38:28.049Z,19.98
2022-10-11T02:41:07.231Z,19.89
2022-10-11T02:43:42.595Z,19.82
2022-10-11T02:46:12.507Z,19.79
2022-10-11T02:48:41.041Z,19.78
2022-10-11T02:51:14.857Z,19.76
2022-10-11T02:53:43.275Z,19.66
2022-10-11T02:56:11.909Z,19.64
2022-10-11T02:58:40.233Z,19.62
2022-10-11T03:01:08.615Z,19.57
2022-10-11T03:03:37.035Z,19.45
2022-10-11T03:06:06.043Z,19.36
2022-10-11T03:08:34.798Z,19.32
2022-10-11T03:11:03.119Z,19.27
2022-10-11T03:13:31.510Z,19.19
2022-10-11T03:16:03.796Z,19.13
2022-10-11T03:18:32.784Z,19.12
2022-10-11T03:21:01.168Z,19.10
2022-10-11T03:23:29.524Z,19.07
2022-10-11T03:25:57.842Z,19.05
2022-10-11T03:28:26.177Z,19.03
2022-10-11T03:30:57.350Z,18.98
2022-10-11T03:33:25.680Z,18.92
2022-10-11T03:35:54.129Z,18.89
2022-10-11T03:38:23.606Z,18.86
2022-10-11T03:40:51.979Z,18.85
2022-10-11T03:43:20.265Z,18.84
2022-10-11T03:45:48.565Z,18.79
2022-10-11T03:48:16.921Z,18.78
2022-10-11T03:50:45.200Z,18.76
2022-10-11T03:53:13.660Z,18.72
2022-10-11T03:55:43.046Z,18.65
2022-10-11T03:58:11.595Z,18.62
2022-10-11T04:00:41.244Z,18.58
2022-10-11T04:03:09.486Z,18.55
2022-10-11T04:05:38.205Z,18.53
2022-10-11T04:08:11.184Z,18.48
2022-10-11T04:10:41.169Z,18.40
2022-10-11T04:13:12.106Z,18.32
2022-10-11T04:15:42.088Z,18.30
2022-10-11T04:18:11.154Z,18.26
2022-10-11T04:20:40.075Z,18.21
2022-10-11T04:23:08.400Z,18.20
2022-10-11T04:25:38.940Z,18.15
2022-10-11T04:28:09.057Z,18.13
2022-10-11T04:30:37.616Z,18.11
2022-10-11T04:33:06.398Z,18.08
2022-10-11T04:35:35.096Z,18.03
2022-10-11T04:38:04.170Z,17.96
2022-10-11T04:40:32.671Z,17.85
2022-10-11T04:43:01.329Z,17.79
2022-10-11T04:45:29.658Z,17.80
2022-10-11T04:47:57.922Z,17.77
2022-10-11T04:50:26.273Z,17.75
2022-10-11T04:52:54.631Z,17.74
2022-10-11T04:55:23.046Z,17.73
2022-10-11T04:57:51.437Z,17.71
2022-10-11T05:00:19.860Z,17.69
2022-10-11T05:02:48.079Z,17.65
2022-10-11T05:05:18.479Z,17.59
2022-10-11T05:07:46.810Z,17.55
2022-10-11T05:10:15.558Z,17.52
2022-10-11T05:12:43.871Z,17.49
2022-10-11T05:15:12.215Z,17.44
2022-10-11T05:17:40.555Z,17.40
2022-10-11T05:20:09.445Z,17.38
2022-10-11T05:22:37.790Z,17.32
2022-10-11T05:25:06.594Z,17.30
2022-10-11T05:27:34.823Z,17.27
2022-10-11T05:30:03.270Z,17.27
2022-10-11T05:32:31.726Z,17.23
2022-10-11T05:35:00.021Z,17.18
2022-10-11T05:37:28.310Z,17.14
2022-10-11T05:39:56.710Z,17.09
2022-10-11T05:42:25.032Z,17.07
2022-10-11T05:44:53.281Z,17.07
2022-10-11T05:47:21.511Z,17.04
2022-10-11T05:49:49.796Z,17.00
2022-10-11T05:52:22.480Z,16.99
2022-10-11T05:54:51.772Z,16.95
2022-10-11T05:57:20.080Z,16.91
2022-10-11T05:59:48.300Z,16.87
2022-10-11T06:02:16.556Z,16.84
2022-10-11T06:04:44.779Z,16.83
2022-10-11T06:07:13.495Z,16.81
2022-10-11T06:09:41.735Z,16.77
2022-10-11T06:12:12.447Z,16.72
2022-10-11T06:14:40.718Z,16.68
2022-10-11T06:17:09.257Z,16.63
2022-10-11T06:19:37.962Z,16.60
2022-10-11T06:22:06.244Z,16.56
2022-10-11T06:24:34.481Z,16.51
2022-10-11T06:27:02.750Z,16.46
2022-10-11T06:29:31.110Z,16.41
2022-10-11T06:31:59.509Z,16.36
2022-10-11T06:34:28.050Z,16.33
2022-10-11T06:36:56.319Z,16.29
2022-10-11T06:39:24.691Z,16.24
2022-10-11T06:41:53.169Z,16.19
2022-10-11T06:44:21.485Z,16.13
2022-10-11T06:46:49.855Z,16.09
2022-10-11T06:49:23.075Z,16.05
2022-10-11T06:51:52.547Z,16.01
2022-10-11T06:54:21.048Z,15.99
2022-10-11T06:56:49.524Z,15.98
2022-10-11T06:59:17.990Z,15.94
2022-10-11T07:01:46.325Z,15.91
2022-10-11T07:04:14.648Z,15.86
2022-10-11T07:06:43.702Z,15.86
2022-10-11T07:09:12.079Z,15.81
2022-10-11T07:11:40.465Z,15.79
2022-10-11T07:14:09.115Z,15.78
2022-10-11T07:16:38.134Z,15.74
2022-10-11T07:19:07.957Z,15.73
2022-10-11T07:21:36.789Z,15.71
2022-10-11T07:24:05.456Z,15.70
2022-10-11T07:26:38.520Z,15.68
2022-10-11T07:29:09.802Z,15.62
2022-10-11T07:31:40.882Z,15.59
2022-10-11T07:34:09.517Z,15.57
2022-10-11T07:36:38.333Z,15.56
2022-10-11T07:39:07.920Z,15.53
2022-10-11T07:41:39.735Z,15.50
2022-10-11T07:44:11.862Z,15.48
2022-10-11T07:46:40.217Z,15.48
2022-10-11T07:49:08.560Z,15.47
2022-10-11T07:51:37.178Z,15.44
2022-10-11T07:54:07.440Z,15.41
2022-10-11T07:56:36.231Z,15.37
2022-10-11T07:59:05.041Z,15.33
2022-10-11T08:01:34.452Z,15.30
2022-10-11T08:04:02.910Z,15.26
2022-10-11T08:06:33.520Z,15.24
2022-10-11T08:09:02.799Z,15.23
2022-10-11T08:11:36.830Z,15.20
2022-10-11T08:14:09.837Z,15.15
2022-10-11T08:16:42.000Z,15.11
2022-10-11T08:19:12.353Z,15.08
2022-10-11T08:21:40.721Z,15.08
2022-10-11T08:24:09.674Z,15.08
2022-10-11T08:26:38.001Z,15.05
2022-10-11T08:29:07.121Z,15.01
2022-10-11T08:31:36.247Z,15.01
2022-10-11T08:34:04.880Z,14.98
2022-10-11T08:36:33.837Z,14.93
2022-10-11T08:39:02.962Z,14.92
2022-10-11T08:42:08.385Z,14.91
2022-10-11T08:45:10.705Z,14.92
2022-10-11T08:47:46.479Z,14.91
2022-10-11T08:50:23.520Z,14.94
2022-10-11T08:53:09.039Z,14.98
2022-10-11T08:55:51.924Z,15.04
2022-10-11T08:58:53.151Z,15.09
2022-10-11T09:01:27.288Z,15.15
2022-10-11T09:03:56.849Z,15.20
2022-10-11T09:06:48.563Z,15.26
2022-10-11T09:09:44.097Z,15.34
2022-10-11T09:12:33.477Z,15.42
2022-10-11T09:15:39.748Z,15.49
2022-10-11T09:18:32.165Z,15.53
2022-10-11T09:21:21.990Z,15.56
2022-10-11T09:24:22.610Z,15.62
2022-10-11T09:26:50.800Z,15.67
2022-10-11T09:29:37.290Z,15.75
2022-10-11T09:32:17.010Z,15.82
2022-10-11T09:34:45.517Z,15.87
2022-10-11T09:37:55.087Z,15.93
2022-10-11T09:40:45.688Z,15.95
2022-10-11T09:43:14.648Z,15.95
2022-10-11T09:45:49.555Z,15.97
2022-10-11T09:48:27.599Z,15.98
2022-10-11T09:51:11.331Z,16.00
2022-10-11T09:54:03.715Z,16.02
2022-10-11T09:56:34.804Z,16.01
2022-10-11T09:59:21.355Z,16.02
2022-10-11T10:01:51.980Z,16.02
2022-10-11T10:04:20.879Z,16.05
2022-10-11T10:06:49.206Z,16.06
2022-10-11T10:09:31.119Z,16.10
2022-10-11T10:11:59.757Z,16.13
2022-10-11T10:14:32.158Z,16.16
2022-10-11T10:17:06.834Z,16.18
2022-10-11T10:19:55.454Z,16.20
2022-10-11T10:22:31.279Z,16.21
2022-10-11T10:25:03.165Z,16.22
2022-10-11T10:27:33.360Z,16.23
2022-10-11T10:30:04.030Z,16.26
2022-10-11T10:33:01.674Z,16.25
2022-10-11T10:35:31.821Z,16.27
2022-10-11T10:38:08.395Z,16.26
2022-10-11T10:40:51.284Z,16.25
2022-10-11T10:43:25.987Z,16.26
2022-10-11T10:46:19.750Z,16.26
2022-10-11T10:52:20.992Z,16.24
2022-10-11T10:55:24.362Z,16.26
2022-10-11T10:58:18.811Z,16.27
2022-10-11T11:00:50.110Z,16.26
2022-10-11T11:03:28.451Z,16.28
2022-10-11T11:06:09.010Z,16.26
2022-10-11T11:09:08.080Z,16.25
2022-10-11T11:11:54.165Z,16.24
2022-10-11T11:14:47.760Z,16.25
2022-10-11T11:17:44.239Z,16.25
2022-10-11T11:20:21.048Z,16.23
2022-10-11T11:23:24.397Z,16.22
2022-10-11T11:26:20.559Z,16.23
2022-10-11T11:29:01.359Z,16.22
2022-10-11T11:31:48.239Z,16.22
2022-10-11T11:34:22.961Z,16.22
2022-10-11T11:37:03.443Z,16.22
2022-10-11T11:39:34.000Z,16.22
2022-10-11T11:42:21.999Z,16.23
2022-10-11T11:44:53.370Z,16.25
2022-10-11T11:47:47.711Z,16.28
2022-10-11T11:50:24.199Z,16.30
2022-10-11T11:53:08.880Z,16.30
2022-10-11T11:55:56.988Z,16.29
2022-10-11T11:58:44.400Z,16.29
2022-10-11T12:01:59.141Z,16.29
2022-10-11T12:04:33.199Z,16.31
2022-10-11T12:07:26.369Z,16.28
2022-10-11T12:10:16.078Z,16.28
2022-10-11T12:12:44.566Z,16.26
2022-10-11T12:15:26.162Z,16.27
2022-10-11T12:17:57.193Z,16.28
2022-10-11T12:20:33.679Z,16.28
2022-10-11T12:23:20.240Z,16.30
2022-10-11T12:26:26.760Z,16.30
2022-10-11T12:29:20.741Z,16.33
2022-10-11T12:31:52.115Z,16.34
2022-10-11T12:34:42.641Z,16.33
2022-10-11T12:37:23.440Z,16.34
2022-10-11T12:39:59.767Z,16.36
2022-10-11T12:42:38.314Z,16.37
2022-10-11T12:45:15.602Z,16.40
2022-10-11T12:47:52.560Z,16.39
2022-10-11T12:50:41.443Z,16.42
2022-10-11T12:53:24.299Z,16.40
2022-10-11T12:56:08.943Z,16.39
2022-10-11T12:58:42.486Z,16.38
2022-10-11T13:01:20.656Z,16.36
2022-10-11T13:04:13.837Z,16.33
2022-10-11T13:06:55.816Z,16.34
2022-10-11T13:09:27.124Z,16.34
2022-10-11T13:12:02.629Z,16.34
2022-10-11T13:14:36.333Z,16.35
2022-10-11T13:17:05.014Z,16.36
2022-10-11T13:19:36.215Z,16.36
2022-10-11T13:22:16.400Z,16.36
2022-10-11T13:24:51.919Z,16.34
2022-10-11T13:27:24.243Z,16.33
2022-10-11T13:29:58.031Z,16.29
2022-10-11T13:32:28.885Z,16.28
2022-10-11T13:35:01.845Z,16.28
2022-10-11T13:37:32.276Z,16.28
2022-10-11T13:40:00.663Z,16.28
2022-10-11T13:42:33.796Z,16.30
2022-10-11T13:45:02.802Z,16.30
2022-10-11T13:47:33.153Z,16.29
2022-10-11T13:50:16.556Z,16.28
2022-10-11T13:53:10.776Z,16.28
2022-10-11T13:55:58.411Z,16.29
2022-10-11T13:58:33.490Z,16.26
2022-10-11T14:01:18.346Z,16.26
2022-10-11T14:03:50.960Z,16.23
2022-10-11T14:06:19.438Z,16.22
2022-10-11T14:08:52.720Z,16.22
2022-10-11T14:11:38.482Z,16.23
2022-10-11T14:14:31.279Z,16.26
2022-10-11T14:17:21.030Z,16.25
2022-10-11T14:20:11.615Z,16.25
2022-10-11T14:22:40.403Z,16.24
2022-10-11T14:25:08.848Z,16.24
2022-10-11T14:27:38.646Z,16.23
2022-10-11T14:30:31.847Z,16.24
2022-10-11T14:33:02.590Z,16.24
2022-10-11T14:35:33.488Z,16.26
2022-10-11T14:38:02.001Z,16.27
2022-10-11T14:40:32.569Z,16.28
2022-10-11T14:43:00.935Z,16.29
2022-10-11T14:45:29.204Z,16.27
2022-10-11T14:47:57.641Z,16.25
2022-10-11T14:50:43.568Z,16.27
2022-10-11T14:53:13.532Z,16.30
2022-10-11T14:55:42.681Z,16.34
2022-10-11T14:58:14.967Z,16.37
2022-10-11T15:00:44.530Z,16.40
2022-10-11T15:03:13.204Z,16.40
2022-10-11T15:05:41.678Z,16.42
2022-10-11T15:08:10.150Z,16.45
2022-10-11T15:10:41.528Z,16.48
2022-10-11T15:13:13.040Z,16.47
2022-10-11T15:15:42.521Z,16.48
2022-10-11T15:18:17.655Z,16.51
2022-10-11T15:20:47.607Z,16.57
2022-10-11T15:23:16.108Z,16.59
2022-10-11T15:25:44.511Z,16.62
2022-10-11T15:28:38.539Z,16.64
2022-10-11T15:31:06.975Z,16.67
2022-10-11T15:33:35.283Z,16.72
2022-10-11T15:36:03.921Z,16.75
2022-10-11T15:38:32.715Z,16.76
2022-10-11T15:41:01.675Z,16.79
2022-10-11T15:43:29.961Z,16.82
2022-10-11T15:45:59.296Z,16.86
2022-10-11T15:48:28.398Z,16.86
2022-10-11T15:50:57.570Z,16.89
2022-10-11T15:53:32.080Z,16.91
2022-10-11T15:56:01.938Z,16.92
2022-10-11T15:58:36.545Z,16.95
2022-10-11T16:01:10.676Z,17.00
2022-10-11T16:03:39.160Z,17.07
2022-10-11T16:06:08.491Z,17.13
2022-10-11T16:08:37.947Z,17.17
2022-10-11T16:11:08.005Z,17.15
2022-10-11T16:13:36.874Z,17.13
2022-10-11T16:16:10.246Z,17.21
2022-10-11T16:18:39.308Z,17.31
2022-10-11T16:21:16.385Z,17.42
2022-10-11T16:23:44.671Z,17.49
2022-10-11T16:26:15.065Z,17.52
2022-10-11T16:28:43.736Z,17.55
2022-10-11T16:31:17.641Z,17.53
2022-10-11T16:33:49.089Z,17.58
2022-10-11T16:36:41.414Z,17.64
2022-10-11T16:39:15.707Z,17.71
2022-10-11T16:41:45.097Z,17.70
2022-10-11T16:44:18.475Z,17.68
2022-10-11T16:46:50.797Z,17.74
2022-10-11T16:49:23.389Z,17.79
2022-10-11T16:51:56.507Z,17.77
2022-10-11T16:54:24.851Z,17.70
2022-10-11T16:56:56.235Z,17.62
2022-10-11T16:59:27.336Z,17.60
2022-10-11T17:01:56.190Z,17.59
2022-10-11T17:04:24.935Z,17.54
2022-10-11T17:06:55.279Z,17.52
2022-10-11T17:09:23.712Z,17.54
2022-10-11T17:11:56.650Z,17.56
2022-10-11T17:14:24.880Z,17.58
2022-10-11T17:16:56.236Z,17.55
2022-10-11T17:19:24.560Z,17.57
2022-10-11T17:21:53.040Z,17.64
2022-10-11T17:24:21.360Z,17.74
2022-10-11T17:26:49.831Z,17.81
2022-10-11T17:29:18.290Z,17.83
2022-10-11T17:31:49.173Z,17.87
2022-10-11T17:34:18.320Z,17.96
2022-10-11T17:36:46.555Z,18.03
2022-10-11T17:39:18.314Z,18.10
2022-10-11T17:41:47.445Z,18.15
2022-10-11T17:44:18.747Z,18.20
2022-10-11T17:46:50.100Z,18.25
2022-10-11T17:49:18.769Z,18.28
2022-10-11T17:51:47.037Z,18.35
2022-10-11T17:54:15.371Z,18.38
2022-10-11T17:56:43.789Z,18.42
2022-10-11T17:59:17.992Z,18.49
2022-10-11T18:01:46.322Z,18.51
2022-10-11T18:04:17.331Z,18.57
2022-10-11T18:06:47.483Z,18.61
2022-10-11T18:09:18.358Z,18.65
2022-10-11T18:11:47.784Z,18.74
2022-10-11T18:14:16.560Z,18.80
2022-10-11T18:16:46.670Z,18.90
2022-10-11T18:19:15.280Z,18.97
2022-10-11T18:21:43.650Z,19.05
2022-10-11T18:24:16.849Z,19.12
2022-10-11T18:26:46.451Z,19.16
2022-10-11T18:29:15.054Z,19.23
2022-10-11T18:31:43.371Z,19.34
2022-10-11T18:34:13.902Z,19.40
2022-10-11T18:36:44.715Z,19.49
2022-10-11T18:39:15.596Z,19.57
2022-10-11T18:41:45.301Z,19.65
2022-10-11T18:44:15.898Z,19.78
2022-10-11T18:46:45.140Z,19.92
2022-10-11T18:49:14.442Z,20.02
2022-10-11T18:51:43.444Z,20.11
2022-10-11T18:54:16.706Z,20.23
2022-10-11T18:56:48.445Z,20.31
2022-10-11T18:59:16.841Z,20.44
2022-10-11T19:01:46.085Z,20.56
2022-10-11T19:04:18.750Z,20.60
2022-10-11T19:06:49.960Z,20.68
2022-10-11T19:09:23.599Z,20.87
2022-10-11T19:11:54.162Z,20.95
2022-10-11T19:14:26.686Z,21.05
2022-10-11T19:16:55.965Z,21.14
2022-10-11T19:19:27.485Z,21.22
2022-10-11T19:21:58.214Z,21.32
2022-10-11T19:24:29.676Z,21.45
2022-10-11T19:27:02.604Z,21.45
2022-10-11T19:29:32.688Z,21.50
2022-10-11T19:32:04.529Z,21.55
2022-10-11T19:34:33.685Z,21.68
2022-10-11T19:37:02.165Z,21.81
2022-10-11T19:39:30.645Z,21.88
2022-10-11T19:41:58.965Z,21.90
2022-10-11T19:44:27.284Z,21.92
2022-10-11T19:46:55.598Z,22.06
2022-10-11T19:49:25.950Z,22.17
2022-10-11T19:51:56.238Z,22.27
2022-10-11T19:54:24.679Z,22.36
2022-10-11T19:56:53.440Z,22.45
2022-10-11T19:59:22.008Z,22.51
2022-10-11T20:01:53.132Z,22.61
2022-10-11T20:07:11.547Z,22.79
2022-10-11T20:09:39.920Z,22.89
2022-10-11T20:12:08.534Z,22.93
2022-10-11T20:14:37.004Z,23.00
2022-10-11T20:17:05.365Z,23.04
2022-10-11T20:19:33.800Z,23.06
2022-10-11T20:22:02.994Z,23.16
2022-10-11T20:24:34.078Z,23.20
2022-10-11T20:27:05.060Z,23.25
2022-10-11T20:29:33.316Z,23.40
2022-10-11T20:32:01.735Z,23.45
2022-10-11T20:34:30.160Z,23.46
2022-10-11T20:36:58.747Z,23.46
2022-10-11T20:39:27.149Z,23.47
2022-10-11T20:41:55.782Z,23.46
2022-10-11T20:44:24.105Z,23.52
2022-10-11T20:46:52.390Z,23.60
2022-10-11T20:49:20.837Z,23.72
2022-10-11T20:51:49.615Z,23.82
2022-10-11T20:54:18.325Z,23.95
2022-10-11T20:56:46.566Z,24.09
2022-10-11T20:59:14.910Z,24.24
2022-10-11T21:01:43.438Z,24.27
2022-10-11T21:04:18.985Z,24.31
2022-10-11T21:06:48.887Z,24.37
2022-10-11T21:09:17.666Z,24.49
2022-10-11T21:11:46.014Z,24.60
2022-10-11T21:14:14.540Z,24.70
2022-10-11T21:16:42.943Z,24.89
2022-10-11T21:19:15.105Z,24.98
2022-10-11T21:21:44.616Z,25.08
2022-10-11T21:24:14.725Z,25.08
2022-10-11T21:26:43.005Z,25.11
2022-10-11T21:29:11.410Z,25.28
2022-10-11T21:31:41.686Z,25.38
2022-10-11T21:34:10.085Z,25.50
2022-10-11T21:36:38.414Z,25.55
2022-10-11T21:39:06.725Z,25.65
2022-10-11T21:41:35.110Z,25.70
2022-10-11T21:44:03.555Z,25.72
2022-10-11T21:47:01.148Z,25.81
2022-10-11T21:49:21.694Z,25.87
2022-10-11T21:51:50.609Z,25.93
2022-10-11T21:54:19.430Z,25.90
2022-10-11T21:56:48.399Z,26.00
2022-10-11T21:59:16.875Z,26.05
2022-10-11T22:01:45.699Z,26.27
2022-10-11T22:04:14.484Z,26.47
2022-10-11T22:06:42.807Z,26.44
2022-10-11T22:09:11.269Z,26.40
2022-10-11T22:11:40.079Z,26.36
2022-10-11T22:14:08.510Z,26.42
2022-10-11T22:16:36.918Z,26.51
2022-10-11T22:19:05.355Z,26.54
2022-10-11T22:21:33.795Z,26.49
2022-10-11T22:24:02.160Z,26.44
2022-10-11T22:26:32.393Z,26.43
2022-10-11T22:29:01.364Z,26.52
2022-10-11T22:31:30.807Z,26.41
2022-10-11T22:34:01.233Z,26.38
2022-10-11T22:36:31.440Z,26.43
2022-10-11T22:38:59.905Z,26.38
2022-10-11T22:41:28.550Z,26.32
2022-10-11T22:43:56.891Z,26.12
2022-10-11T22:46:25.199Z,26.08
2022-10-11T22:48:53.529Z,25.97
2022-10-11T22:51:24.405Z,25.89
2022-10-11T22:53:52.728Z,25.61
2022-10-11T22:56:21.048Z,25.44
2022-10-11T22:58:49.365Z,25.19
2022-10-11T23:01:17.845Z,25.01
2022-10-11T23:03:50.195Z,24.88
2022-10-11T23:06:18.986Z,24.67
2022-10-11T23:08:47.279Z,24.48
2022-10-11T23:11:15.597Z,24.31
2022-10-11T23:13:43.871Z,24.10
2022-10-11T23:16:13.819Z,23.91
2022-10-11T23:18:43.119Z,23.74
2022-10-11T23:21:12.139Z,23.65
2022-10-11T23:23:40.672Z,23.60
2022-10-11T23:26:13.179Z,23.49
2022-10-11T23:28:43.172Z,23.34
2022-10-11T23:31:14.070Z,23.26
2022-10-11T23:33:42.432Z,23.09
2022-10-11T23:36:22.955Z,22.90
2022-10-11T23:38:56.397Z,22.85
2022-10-11T23:41:27.909Z,22.79
2022-10-11T23:43:56.399Z,22.70
2022-10-11T23:46:24.991Z,22.68
2022-10-11T23:48:53.253Z,22.66
2022-10-11T23:51:21.645Z,22.55
2022-10-11T23:53:50.030Z,22.46
2022-10-11T23:56:18.343Z,22.41
2022-10-11T23:58:46.919Z,22.37
